sensor_id;sensor_type;location;lat;lon;timestamp;pressure;altitude;pressure_sealevel;temperature;humidity
1776;BME280;885;42.626;23.200;2022-10-16T00:00:33;153473.69;;;7.22;100.00
1776;BME280;885;42.626;23.200;2022-10-16T00:03:03;153463.63;;;7.18;100.00
1776;BME280;885;42.626;23.200;2022-10-16T00:05:29;153457.31;;;7.15;100.00
1776;BME280;885;42.626;23.200;2022-10-16T00:07:56;153459.81;;;7.16;100.00
1776;BME280;885;42.626;23.200;2022-10-16T00:10:23;153423.31;;;7.02;100.00
1776;BME280;885;42.626;23.200;2022-10-16T00:12:50;153818.81;;;7.13;100.00
1776;BME280;885;42.626;23.200;2022-10-16T00:15:17;153839.00;;;7.21;100.00
1776;BME280;885;42.626;23.200;2022-10-16T00:17:44;153847.88;;;7.25;100.00
1776;BME280;885;42.626;23.200;2022-10-16T00:20:12;153846.59;;;7.24;100.00
1776;BME280;885;42.626;23.200;2022-10-16T00:22:39;153837.72;;;7.20;100.00
1776;BME280;885;42.626;23.200;2022-10-16T00:25:06;153831.44;;;7.18;100.00
1776;BME280;885;42.626;23.200;2022-10-16T00:27:33;153820.09;;;7.13;100.00
1776;BME280;885;42.626;23.200;2022-10-16T00:30:00;153831.44;;;7.18;100.00
1776;BME280;885;42.626;23.200;2022-10-16T00:32:27;153810.00;;;7.09;100.00
1776;BME280;885;42.626;23.200;2022-10-16T00:34:54;154191.69;;;7.15;100.00
1776;BME280;885;42.626;23.200;2022-10-16T00:37:22;154187.91;;;7.13;100.00
1776;BME280;885;42.626;23.200;2022-10-16T00:39:49;154196.75;;;7.17;100.00
1776;BME280;885;42.626;23.200;2022-10-16T00:42:18;154572.28;;;7.20;100.00
1776;BME280;885;42.626;23.200;2022-10-16T00:44:48;154198.03;;;7.17;100.00
1776;BME280;885;42.626;23.200;2022-10-16T00:47:21;153792.31;;;7.02;100.00
1776;BME280;885;42.626;23.200;2022-10-16T00:49:51;154151.22;;;6.99;100.00
1776;BME280;885;42.626;23.200;2022-10-16T00:52:19;154141.09;;;6.95;100.00
1776;BME280;885;42.626;23.200;2022-10-16T00:54:49;154541.78;;;7.08;100.00
1776;BME280;885;42.626;23.200;2022-10-16T00:57:16;154559.56;;;7.15;100.00
1776;BME280;885;42.626;23.200;2022-10-16T00:59:43;154544.34;;;7.09;100.00
1776;BME280;885;42.626;23.200;2022-10-16T01:02:12;153750.66;;;6.86;100.00
1776;BME280;885;42.626;23.200;2022-10-16T01:04:55;154144.88;;;6.96;100.00
1776;BME280;885;42.626;23.200;2022-10-16T01:07:36;154529.13;;;7.03;100.00
1776;BME280;885;42.626;23.200;2022-10-16T01:10:38;154527.84;;;7.02;100.00
1776;BME280;885;42.626;23.200;2022-10-16T01:13:14;154127.16;;;6.89;100.00
1776;BME280;885;42.626;23.200;2022-10-16T01:15:47;154117.03;;;6.85;100.00
1776;BME280;885;42.626;23.200;2022-10-16T01:18:28;154115.81;;;6.85;100.00
1776;BME280;885;42.626;23.200;2022-10-16T01:21:01;154899.47;;;7.04;100.00
1776;BME280;885;42.626;23.200;2022-10-16T01:23:38;154909.66;;;7.08;100.00
1776;BME280;885;42.626;23.200;2022-10-16T01:26:32;154544.34;;;7.09;100.00
1776;BME280;885;42.626;23.200;2022-10-16T01:29:09;154924.97;;;7.14;100.00
1776;BME280;885;42.626;23.200;2022-10-16T01:31:40;154551.97;;;7.12;100.00
1776;BME280;885;42.626;23.200;2022-10-16T01:34:14;154134.75;;;6.92;100.00
1776;BME280;885;42.626;23.200;2022-10-16T01:36:50;154521.50;;;7.00;100.00
1776;BME280;885;42.626;23.200;2022-10-16T01:39:24;154115.81;;;6.85;100.00
1776;BME280;885;42.626;23.200;2022-10-16T01:42:04;154498.72;;;6.91;100.00
1776;BME280;885;42.626;23.200;2022-10-16T01:44:35;154505.00;;;6.93;100.00
1776;BME280;885;42.626;23.200;2022-10-16T01:47:08;154521.50;;;7.00;100.00
1776;BME280;885;42.626;23.200;2022-10-16T01:49:49;154506.28;;;6.94;100.00
1776;BME280;885;42.626;23.200;2022-10-16T01:52:21;154896.97;;;7.03;100.00
1776;BME280;885;42.626;23.200;2022-10-16T01:54:52;155281.41;;;7.09;100.00
1776;BME280;885;42.626;23.200;2022-10-16T01:57:21;155287.78;;;7.12;100.00
1776;BME280;885;42.626;23.200;2022-10-16T01:59:51;154912.22;;;7.09;100.00
1776;BME280;885;42.626;23.200;2022-10-16T02:02:21;154498.72;;;6.91;100.00
1776;BME280;885;42.626;23.200;2022-10-16T02:05:03;154497.44;;;6.90;100.00
1776;BME280;885;42.626;23.200;2022-10-16T02:07:38;154499.94;;;6.91;100.00
1776;BME280;885;42.626;23.200;2022-10-16T02:10:07;154508.84;;;6.95;100.00
1776;BME280;885;42.626;23.200;2022-10-16T02:12:37;154507.56;;;6.94;100.00
1776;BME280;885;42.626;23.200;2022-10-16T02:15:08;154888.09;;;6.99;100.00
1776;BME280;885;42.626;23.200;2022-10-16T02:17:35;154519.00;;;6.99;100.00
1776;BME280;885;42.626;23.200;2022-10-16T02:20:03;154505.00;;;6.93;100.00
1776;BME280;885;42.626;23.200;2022-10-16T02:22:33;154505.00;;;6.93;100.00
1776;BME280;885;42.626;23.200;2022-10-16T02:25:04;154478.44;;;6.83;100.00
1776;BME280;885;42.626;23.200;2022-10-16T02:27:44;154477.16;;;6.82;100.00
1776;BME280;885;42.626;23.200;2022-10-16T02:30:21;154488.56;;;6.87;100.00
1776;BME280;885;42.626;23.200;2022-10-16T02:32:51;154493.63;;;6.89;100.00
1776;BME280;885;42.626;23.200;2022-10-16T02:35:21;154493.63;;;6.89;100.00
1776;BME280;885;42.626;23.200;2022-10-16T02:37:50;154101.88;;;6.79;100.00
1776;BME280;885;42.626;23.200;2022-10-16T02:40:17;154477.16;;;6.82;100.00
1776;BME280;885;42.626;23.200;2022-10-16T02:42:50;154480.94;;;6.84;100.00
1776;BME280;885;42.626;23.200;2022-10-16T02:45:22;154475.88;;;6.82;100.00
1776;BME280;885;42.626;23.200;2022-10-16T02:47:58;154486.00;;;6.86;100.00
1776;BME280;885;42.626;23.200;2022-10-16T02:50:25;154091.75;;;6.75;100.00
1776;BME280;885;42.626;23.200;2022-10-16T02:53:03;154103.13;;;6.80;100.00
1776;BME280;885;42.626;23.200;2022-10-16T02:55:37;154093.03;;;6.76;100.00
1776;BME280;885;42.626;23.200;2022-10-16T02:58:06;154095.53;;;6.77;100.00
1776;BME280;885;42.626;23.200;2022-10-16T03:00:34;153680.03;;;6.58;100.00
1776;BME280;885;42.626;23.200;2022-10-16T03:03:01;153669.88;;;6.54;100.00
1776;BME280;885;42.626;23.200;2022-10-16T03:05:28;153686.28;;;6.60;100.00
1776;BME280;885;42.626;23.200;2022-10-16T03:08:04;153302.47;;;6.54;100.00
1776;BME280;885;42.626;23.200;2022-10-16T03:10:34;153685.06;;;6.60;100.00
1776;BME280;885;42.626;23.200;2022-10-16T03:13:01;153686.28;;;6.60;100.00
1776;BME280;885;42.626;23.200;2022-10-16T03:15:32;153692.63;;;6.63;100.00
1776;BME280;885;42.626;23.200;2022-10-16T03:18:00;153695.16;;;6.64;100.00
1776;BME280;885;42.626;23.200;2022-10-16T03:20:27;153674.94;;;6.56;100.00
1776;BME280;885;42.626;23.200;2022-10-16T03:22:54;153690.13;;;6.62;100.00
1776;BME280;885;42.626;23.200;2022-10-16T03:25:20;153695.16;;;6.64;100.00
1776;BME280;885;42.626;23.200;2022-10-16T03:27:47;153691.34;;;6.62;100.00
1776;BME280;885;42.626;23.200;2022-10-16T03:30:14;153700.22;;;6.66;100.00
1776;BME280;885;42.626;23.200;2022-10-16T03:32:42;153674.94;;;6.56;100.00
1776;BME280;885;42.626;23.200;2022-10-16T03:35:11;154070.25;;;6.67;100.00
1776;BME280;885;42.626;23.200;2022-10-16T03:37:38;154080.34;;;6.71;100.00
1776;BME280;885;42.626;23.200;2022-10-16T03:40:05;153299.97;;;6.53;100.00
1776;BME280;885;42.626;23.200;2022-10-16T03:42:32;153690.13;;;6.62;100.00
1776;BME280;885;42.626;23.200;2022-10-16T03:45:10;153697.66;;;6.65;100.00
1776;BME280;885;42.626;23.200;2022-10-16T03:47:54;153297.44;;;6.52;100.00
1776;BME280;885;42.626;23.200;2022-10-16T03:50:25;152857.25;;;6.22;100.00
1776;BME280;885;42.626;23.200;2022-10-16T03:52:52;153243.34;;;6.30;100.00
1776;BME280;885;42.626;23.200;2022-10-16T03:55:19;153269.78;;;6.40;100.00
1776;BME280;885;42.626;23.200;2022-10-16T03:57:48;153286.16;;;6.47;100.00
1776;BME280;885;42.626;23.200;2022-10-16T04:00:15;153287.38;;;6.48;100.00
1776;BME280;885;42.626;23.200;2022-10-16T04:02:44;153294.94;;;6.51;100.00
1776;BME280;885;42.626;23.200;2022-10-16T04:05:19;153293.66;;;6.50;100.00
1776;BME280;885;42.626;23.200;2022-10-16T04:07:47;153284.88;;;6.47;100.00
1776;BME280;885;42.626;23.200;2022-10-16T04:10:15;152888.63;;;6.35;100.00
1776;BME280;885;42.626;23.200;2022-10-16T04:12:48;152883.63;;;6.33;100.00
1776;BME280;885;42.626;23.200;2022-10-16T04:15:15;152877.31;;;6.30;100.00
1776;BME280;885;42.626;23.200;2022-10-16T04:17:45;152867.28;;;6.26;100.00
1776;BME280;885;42.626;23.200;2022-10-16T04:20:13;152877.31;;;6.30;100.00
1776;BME280;885;42.626;23.200;2022-10-16T04:22:43;152853.50;;;6.21;100.00
1776;BME280;885;42.626;23.200;2022-10-16T04:25:12;152858.53;;;6.23;100.00
1776;BME280;885;42.626;23.200;2022-10-16T04:27:39;153221.97;;;6.21;100.00
1776;BME280;885;42.626;23.200;2022-10-16T04:30:07;152843.47;;;6.17;100.00
1776;BME280;885;42.626;23.200;2022-10-16T04:32:33;152830.91;;;6.12;100.00
1776;BME280;885;42.626;23.200;2022-10-16T04:35:00;152819.66;;;6.07;100.00
1776;BME280;885;42.626;23.200;2022-10-16T04:37:28;152797.03;;;5.98;100.00
1776;BME280;885;42.626;23.200;2022-10-16T04:39:55;152776.97;;;5.90;100.00
1776;BME280;885;42.626;23.200;2022-10-16T04:42:23;153174.16;;;6.02;100.00
1776;BME280;885;42.626;23.200;2022-10-16T04:44:50;153558.94;;;6.09;100.00
1776;BME280;885;42.626;23.200;2022-10-16T04:47:16;153562.69;;;6.11;100.00
1776;BME280;885;42.626;23.200;2022-10-16T04:49:43;153569.00;;;6.13;100.00
1776;BME280;885;42.626;23.200;2022-10-16T04:52:10;153569.00;;;6.13;100.00
1776;BME280;885;42.626;23.200;2022-10-16T04:54:37;153555.09;;;6.08;100.00
1776;BME280;885;42.626;23.200;2022-10-16T04:57:04;153551.34;;;6.06;100.00
1776;BME280;885;42.626;23.200;2022-10-16T04:59:32;153546.28;;;6.04;100.00
1776;BME280;885;42.626;23.200;2022-10-16T05:01:59;153546.28;;;6.04;100.00
1776;BME280;885;42.626;23.200;2022-10-16T05:04:26;153918.50;;;6.06;100.00
1776;BME280;885;42.626;23.200;2022-10-16T05:06:53;153950.09;;;6.19;100.00
1776;BME280;885;42.626;23.200;2022-10-16T05:09:20;153943.78;;;6.16;100.00
1776;BME280;885;42.626;23.200;2022-10-16T05:11:47;154323.72;;;6.21;100.00
1776;BME280;885;42.626;23.200;2022-10-16T05:14:13;154313.59;;;6.17;100.00
1776;BME280;885;42.626;23.200;2022-10-16T05:16:42;154331.31;;;6.24;100.00
1776;BME280;885;42.626;23.200;2022-10-16T05:19:09;154711.38;;;6.29;100.00
1776;BME280;885;42.626;23.200;2022-10-16T05:21:36;154726.63;;;6.35;100.00
1776;BME280;885;42.626;23.200;2022-10-16T05:24:02;154338.94;;;6.27;100.00
1776;BME280;885;42.626;23.200;2022-10-16T05:26:29;154717.75;;;6.32;100.00
1776;BME280;885;42.626;23.200;2022-10-16T05:28:56;154745.66;;;6.43;100.00
1776;BME280;885;42.626;23.200;2022-10-16T05:31:23;154752.03;;;6.46;100.00
1776;BME280;885;42.626;23.200;2022-10-16T05:33:51;154316.09;;;6.18;100.00
1776;BME280;885;42.626;23.200;2022-10-16T05:36:18;154729.19;;;6.36;100.00
1776;BME280;885;42.626;23.200;2022-10-16T05:38:45;155136.09;;;6.52;100.00
1776;BME280;885;42.626;23.200;2022-10-16T05:41:11;155160.34;;;6.62;100.00
1776;BME280;885;42.626;23.200;2022-10-16T05:43:38;155173.06;;;6.67;100.00
1776;BME280;885;42.626;23.200;2022-10-16T05:46:05;155175.63;;;6.68;100.00
1776;BME280;885;42.626;23.200;2022-10-16T05:48:33;155167.94;;;6.65;100.00
1776;BME280;885;42.626;23.200;2022-10-16T05:51:02;155166.66;;;6.64;100.00
1776;BME280;885;42.626;23.200;2022-10-16T05:53:30;155165.44;;;6.64;100.00
1776;BME280;885;42.626;23.200;2022-10-16T05:55:58;155538.19;;;6.66;100.00
1776;BME280;885;42.626;23.200;2022-10-16T05:58:28;155543.31;;;6.68;100.00
1776;BME280;885;42.626;23.200;2022-10-16T06:00:55;155559.91;;;6.74;100.00
1776;BME280;885;42.626;23.200;2022-10-16T06:03:22;155573.94;;;6.80;100.00
1776;BME280;885;42.626;23.200;2022-10-16T06:05:49;155579.06;;;6.82;100.00
1776;BME280;885;42.626;23.200;2022-10-16T06:08:18;155950.69;;;6.83;100.00
1776;BME280;885;42.626;23.200;2022-10-16T06:10:45;155962.22;;;6.88;100.00
1776;BME280;885;42.626;23.200;2022-10-16T06:13:13;155966.03;;;6.89;100.00
1776;BME280;885;42.626;23.200;2022-10-16T06:15:40;155975.03;;;6.93;100.00
1776;BME280;885;42.626;23.200;2022-10-16T06:18:08;156350.63;;;6.96;100.00
1776;BME280;885;42.626;23.200;2022-10-16T06:20:35;156355.75;;;6.98;100.00
1776;BME280;885;42.626;23.200;2022-10-16T06:23:02;156366.00;;;7.02;100.00
1776;BME280;885;42.626;23.200;2022-10-16T06:25:31;156366.00;;;7.02;100.00
1776;BME280;885;42.626;23.200;2022-10-16T06:27:57;156743.03;;;7.05;100.00
1776;BME280;885;42.626;23.200;2022-10-16T06:30:24;156752.03;;;7.09;100.00
1776;BME280;885;42.626;23.200;2022-10-16T06:32:51;156767.47;;;7.15;100.00
1776;BME280;885;42.626;23.200;2022-10-16T06:35:18;156775.22;;;7.18;100.00
1776;BME280;885;42.626;23.200;2022-10-16T06:37:44;157148.50;;;7.20;100.00
1776;BME280;885;42.626;23.200;2022-10-16T06:40:11;157152.38;;;7.21;100.00
1776;BME280;885;42.626;23.200;2022-10-16T06:42:41;157546.41;;;7.32;100.00
1776;BME280;885;42.626;23.200;2022-10-16T06:45:09;157565.84;;;7.39;100.00
1776;BME280;885;42.626;23.200;2022-10-16T06:47:36;157953.59;;;7.47;100.00
1776;BME280;885;42.626;23.200;2022-10-16T06:50:04;157962.66;;;7.50;100.00
1776;BME280;885;42.626;23.200;2022-10-16T06:52:32;158354.50;;;7.59;100.00
1776;BME280;885;42.626;23.200;2022-10-16T06:54:58;158371.41;;;7.66;100.00
1776;BME280;885;42.626;23.200;2022-10-16T06:57:25;158759.50;;;7.73;100.00
1776;BME280;885;42.626;23.200;2022-10-16T06:59:53;158784.28;;;7.83;100.00
1776;BME280;885;42.626;23.200;2022-10-16T07:02:20;159172.56;;;7.90;100.00
1776;BME280;885;42.626;23.200;2022-10-16T07:04:47;159210.47;;;8.05;100.00
1776;BME280;885;42.626;23.200;2022-10-16T07:07:14;159601.59;;;8.14;100.00
1776;BME280;885;42.626;23.200;2022-10-16T07:09:40;160010.00;;;8.29;100.00
1776;BME280;885;42.626;23.200;2022-10-16T07:12:07;160023.13;;;8.34;100.00
1776;BME280;885;42.626;23.200;2022-10-16T07:14:34;160065.19;;;8.50;100.00
1776;BME280;885;42.626;23.200;2022-10-16T07:17:02;160476.53;;;8.66;100.00
1776;BME280;885;42.626;23.200;2022-10-16T07:19:29;160487.06;;;8.70;100.00
1776;BME280;885;42.626;23.200;2022-10-16T07:21:56;160510.81;;;8.79;100.00
1776;BME280;885;42.626;23.200;2022-10-16T07:24:23;160934.34;;;9.00;100.00
1776;BME280;885;42.626;23.200;2022-10-16T07:26:50;161370.13;;;9.25;100.00
1776;BME280;885;42.626;23.200;2022-10-16T07:29:18;161782.38;;;9.41;100.00
1776;BME280;885;42.626;23.200;2022-10-16T07:31:46;161810.25;;;9.51;100.00
1776;BME280;885;42.626;23.200;2022-10-16T07:34:16;162220.16;;;9.67;100.00
1776;BME280;885;42.626;23.200;2022-10-16T07:36:43;163035.28;;;9.95;100.00
1776;BME280;885;42.626;23.200;2022-10-16T07:39:11;163480.75;;;10.23;100.00
1776;BME280;885;42.626;23.200;2022-10-16T07:41:38;163523.63;;;10.39;100.00
1776;BME280;885;42.626;23.200;2022-10-16T07:44:04;163976.31;;;10.70;100.00
1776;BME280;885;42.626;23.200;2022-10-16T07:46:31;164410.50;;;10.93;100.00
1776;BME280;885;42.626;23.200;2022-10-16T07:49:01;164034.09;;;10.91;100.00
1776;BME280;885;42.626;23.200;2022-10-16T07:51:30;164483.31;;;11.20;100.00
1776;BME280;885;42.626;23.200;2022-10-16T07:53:57;164502.19;;;11.28;100.00
1776;BME280;885;42.626;23.200;2022-10-16T07:56:24;164969.44;;;11.63;100.00
1776;BME280;885;42.626;23.200;2022-10-16T07:58:51;165448.06;;;12.03;100.00
1776;BME280;885;42.626;23.200;2022-10-16T08:01:18;165871.53;;;12.22;99.12
1776;BME280;885;42.626;23.200;2022-10-16T08:03:47;165966.63;;;12.57;97.16
1776;BME280;885;42.626;23.200;2022-10-16T08:06:14;165951.72;;;12.52;95.95
1776;BME280;885;42.626;23.200;2022-10-16T08:08:42;165969.38;;;12.58;94.99
1776;BME280;885;42.626;23.200;2022-10-16T08:11:09;165999.25;;;12.69;94.82
1776;BME280;885;42.626;23.200;2022-10-16T08:13:36;166015.59;;;12.75;92.72
1776;BME280;885;42.626;23.200;2022-10-16T08:16:04;166499.69;;;13.17;91.10
1776;BME280;885;42.626;23.200;2022-10-16T08:18:33;166524.19;;;13.26;90.92
1776;BME280;885;42.626;23.200;2022-10-16T08:21:01;166600.53;;;13.54;88.00
1776;BME280;885;42.626;23.200;2022-10-16T08:23:28;166627.78;;;13.64;86.68
1776;BME280;885;42.626;23.200;2022-10-16T08:26:03;166616.88;;;13.60;85.56
1776;BME280;885;42.626;23.200;2022-10-16T08:28:30;166637.38;;;13.68;86.12
1776;BME280;885;42.626;23.200;2022-10-16T08:31:05;166671.44;;;13.80;84.18
1776;BME280;885;42.626;23.200;2022-10-16T08:33:32;166723.22;;;13.99;83.59
1776;BME280;885;42.626;23.200;2022-10-16T08:36:00;167175.66;;;14.28;82.27
1776;BME280;885;42.626;23.200;2022-10-16T08:38:27;166802.38;;;14.28;81.64
1776;BME280;885;42.626;23.200;2022-10-16T08:43:54;167253.63;;;14.57;81.08
1776;BME280;885;42.626;23.200;2022-10-16T08:46:35;167286.44;;;14.69;80.98
1776;BME280;885;42.626;23.200;2022-10-16T08:49:10;167297.38;;;14.73;80.18
1776;BME280;885;42.626;23.200;2022-10-16T08:51:38;167746.41;;;15.01;78.72
1776;BME280;885;42.626;23.200;2022-10-16T08:54:06;167753.25;;;15.03;79.11
1776;BME280;885;42.626;23.200;2022-10-16T08:56:40;167378.09;;;15.03;77.73
1776;BME280;885;42.626;23.200;2022-10-16T08:59:11;167399.97;;;15.11;77.70
1776;BME280;885;42.626;23.200;2022-10-16T09:01:43;167857.44;;;15.42;77.04
1776;BME280;885;42.626;23.200;2022-10-16T09:04:39;167909.63;;;15.61;75.25
1776;BME280;885;42.626;23.200;2022-10-16T09:07:13;167949.38;;;15.75;74.76
1776;BME280;885;42.626;23.200;2022-10-16T09:09:56;167502.63;;;15.49;74.56
1776;BME280;885;42.626;23.200;2022-10-16T09:12:33;167920.59;;;15.65;73.64
1776;BME280;885;42.626;23.200;2022-10-16T09:15:12;167953.53;;;15.77;73.64
1776;BME280;885;42.626;23.200;2022-10-16T09:17:47;167965.84;;;15.81;72.80
1776;BME280;885;42.626;23.200;2022-10-16T09:20:25;168031.72;;;16.06;72.21
1776;BME280;885;42.626;23.200;2022-10-16T09:23:12;168068.75;;;16.19;70.49
1776;BME280;885;42.626;23.200;2022-10-16T09:25:43;168152.53;;;16.50;68.28
1776;BME280;885;42.626;23.200;2022-10-16T09:28:12;168105.81;;;16.33;66.91
1776;BME280;885;42.626;23.200;2022-10-16T09:30:39;167222.75;;;15.83;68.04
1776;BME280;885;42.626;23.200;2022-10-16T09:33:07;167712.00;;;16.26;66.13
1776;BME280;885;42.626;23.200;2022-10-16T09:35:38;167773.63;;;16.48;64.85
1776;BME280;885;42.626;23.200;2022-10-16T09:38:06;167813.44;;;16.63;62.59
1776;BME280;885;42.626;23.200;2022-10-16T09:40:35;167450.91;;;16.67;61.90
1776;BME280;885;42.626;23.200;2022-10-16T09:43:12;167435.88;;;16.62;63.85
1776;BME280;885;42.626;23.200;2022-10-16T09:45:43;167857.22;;;16.79;62.63
1776;BME280;885;42.626;23.200;2022-10-16T09:48:19;167884.63;;;16.89;63.35
1776;BME280;885;42.626;23.200;2022-10-16T09:50:55;167928.44;;;17.05;61.84
1776;BME280;885;42.626;23.200;2022-10-16T09:53:22;168005.16;;;17.33;60.26
1776;BME280;885;42.626;23.200;2022-10-16T09:55:51;167568.44;;;17.11;60.77
1776;BME280;885;42.626;23.200;2022-10-16T09:58:21;167636.78;;;17.36;56.13
1776;BME280;885;42.626;23.200;2022-10-16T10:00:49;167201.56;;;17.14;57.85
1776;BME280;885;42.626;23.200;2022-10-16T10:03:34;167298.44;;;17.50;55.32
1776;BME280;885;42.626;23.200;2022-10-16T10:06:07;167252.00;;;17.32;55.18
1776;BME280;885;42.626;23.200;2022-10-16T10:08:41;167342.09;;;17.66;54.39
1776;BME280;885;42.626;23.200;2022-10-16T10:11:18;167295.69;;;17.48;55.01
1776;BME280;885;42.626;23.200;2022-10-16T10:13:46;167321.63;;;17.58;54.55
1776;BME280;885;42.626;23.200;2022-10-16T10:16:23;167848.72;;;18.14;54.54
1776;BME280;885;42.626;23.200;2022-10-16T10:18:58;167807.75;;;17.99;55.82
1776;BME280;885;42.626;23.200;2022-10-16T10:21:24;167902.09;;;18.34;53.56
1776;BME280;885;42.626;23.200;2022-10-16T10:23:55;167934.94;;;18.46;52.56
1776;BME280;885;42.626;23.200;2022-10-16T10:26:26;168413.72;;;18.83;53.13
1776;BME280;885;42.626;23.200;2022-10-16T10:29:04;167997.88;;;18.69;52.33
1776;BME280;885;42.626;23.200;2022-10-16T10:31:36;168071.78;;;18.96;51.24
1776;BME280;885;42.626;23.200;2022-10-16T10:34:27;168132.00;;;19.18;50.05
1776;BME280;885;42.626;23.200;2022-10-16T10:37:04;168625.03;;;19.61;49.54
1776;BME280;885;42.626;23.200;2022-10-16T10:39:40;168655.25;;;19.72;50.70
1776;BME280;885;42.626;23.200;2022-10-16T10:42:18;168223.78;;;19.52;49.55
1776;BME280;885;42.626;23.200;2022-10-16T10:45:22;168690.94;;;19.85;49.72
1776;BME280;885;42.626;23.200;2022-10-16T10:48:12;167465.22;;;19.50;47.33
1776;BME280;885;42.626;23.200;2022-10-16T10:50:46;167833.53;;;19.47;49.80
1776;BME280;885;42.626;23.200;2022-10-16T10:53:29;167893.59;;;19.69;48.63
1776;BME280;885;42.626;23.200;2022-10-16T10:56:08;167997.44;;;20.07;46.49
1776;BME280;885;42.626;23.200;2022-10-16T10:59:01;168459.31;;;20.38;47.54
1776;BME280;885;42.626;23.200;2022-10-16T11:01:40;167989.25;;;20.04;47.13
1776;BME280;885;42.626;23.200;2022-10-16T11:04:24;168082.19;;;20.38;45.71
1776;BME280;885;42.626;23.200;2022-10-16T11:06:57;168106.81;;;20.47;46.10
1776;BME280;885;42.626;23.200;2022-10-16T11:09:28;167741.94;;;20.52;44.94
1776;BME280;885;42.626;23.200;2022-10-16T11:12:01;168233.94;;;20.94;44.71
1776;BME280;885;42.626;23.200;2022-10-16T11:14:35;167814.19;;;20.79;44.00
1776;BME280;885;42.626;23.200;2022-10-16T11:17:10;167367.50;;;20.53;44.62
1776;BME280;885;42.626;23.200;2022-10-16T11:19:42;167803.28;;;20.75;45.45
1776;BME280;885;42.626;23.200;2022-10-16T11:22:15;167821.03;;;20.81;44.83
1776;BME280;885;42.626;23.200;2022-10-16T11:24:48;167436.91;;;20.79;44.12
1776;BME280;885;42.626;23.200;2022-10-16T11:27:19;167496.78;;;21.01;42.77
1776;BME280;885;42.626;23.200;2022-10-16T11:29:52;167553.94;;;21.22;43.17
1776;BME280;885;42.626;23.200;2022-10-16T11:32:27;167556.69;;;21.23;42.54
1776;BME280;885;42.626;23.200;2022-10-16T11:34:59;166800.25;;;21.22;41.68
1776;BME280;885;42.626;23.200;2022-10-16T11:37:31;166418.75;;;21.21;41.16
1776;BME280;885;42.626;23.200;2022-10-16T11:40:09;166025.13;;;21.15;41.30
1776;BME280;885;42.626;23.200;2022-10-16T11:42:48;166014.34;;;21.11;41.39
1776;BME280;885;42.626;23.200;2022-10-16T11:45:26;165589.88;;;20.93;42.63
1776;BME280;885;42.626;23.200;2022-10-16T11:48:02;165593.91;;;20.95;41.75
1776;BME280;885;42.626;23.200;2022-10-16T11:50:36;165619.53;;;21.04;42.82
1776;BME280;885;42.626;23.200;2022-10-16T11:53:14;165638.31;;;21.11;42.67
1776;BME280;885;42.626;23.200;2022-10-16T11:55:45;164783.31;;;20.74;42.60
1776;BME280;885;42.626;23.200;2022-10-16T11:58:18;166111.38;;;21.47;41.57
1776;BME280;885;42.626;23.200;2022-10-16T12:00:54;166590.41;;;21.85;41.24
1776;BME280;885;42.626;23.200;2022-10-16T12:03:27;165384.47;;;21.58;39.53
1776;BME280;885;42.626;23.200;2022-10-16T12:06:06;165375.09;;;21.54;40.35
1776;BME280;885;42.626;23.200;2022-10-16T12:08:37;164547.91;;;21.27;40.26
1776;BME280;885;42.626;23.200;2022-10-16T12:11:19;165004.25;;;21.57;39.54
1776;BME280;885;42.626;23.200;2022-10-16T12:13:46;164191.94;;;21.35;39.65
1776;BME280;885;42.626;23.200;2022-10-16T12:16:21;163803.97;;;21.31;39.37
1776;BME280;885;42.626;23.200;2022-10-16T12:19:09;163774.72;;;21.20;40.26
1776;BME280;885;42.626;23.200;2022-10-16T12:21:37;164283.91;;;21.70;39.38
1776;BME280;885;42.626;23.200;2022-10-16T12:24:04;164313.19;;;21.81;38.92
1776;BME280;885;42.626;23.200;2022-10-16T12:26:33;163862.50;;;21.53;39.19
1776;BME280;885;42.626;23.200;2022-10-16T12:29:14;163050.81;;;21.31;39.01
1776;BME280;885;42.626;23.200;2022-10-16T12:31:48;163081.22;;;21.43;38.69
1776;BME280;885;42.626;23.200;2022-10-16T12:34:23;163485.09;;;21.53;39.66
1776;BME280;885;42.626;23.200;2022-10-16T12:36:54;163585.91;;;21.91;37.64
1776;BME280;885;42.626;23.200;2022-10-16T12:39:22;163670.81;;;22.24;37.08
1776;BME280;885;42.626;23.200;2022-10-16T12:42:01;164123.13;;;22.52;37.16
1776;BME280;885;42.626;23.200;2022-10-16T12:44:32;163314.19;;;22.32;36.85
1776;BME280;885;42.626;23.200;2022-10-16T12:47:00;163745.09;;;22.52;37.81
1776;BME280;885;42.626;23.200;2022-10-16T12:49:35;163759.72;;;22.57;37.88
1776;BME280;885;42.626;23.200;2022-10-16T12:52:03;161611.66;;;21.58;37.46
1776;BME280;885;42.626;23.200;2022-10-16T12:54:34;162062.56;;;21.86;37.52
1776;BME280;885;42.626;23.200;2022-10-16T12:57:26;161658.81;;;21.76;37.88
1776;BME280;885;42.626;23.200;2022-10-16T13:00:03;162533.56;;;22.22;37.19
1776;BME280;885;42.626;23.200;2022-10-16T13:02:49;162991.81;;;22.53;37.07
1776;BME280;885;42.626;23.200;2022-10-16T13:05:28;163416.19;;;22.70;37.24
1776;BME280;885;42.626;23.200;2022-10-16T13:08:11;163437.38;;;22.78;38.03
1776;BME280;885;42.626;23.200;2022-10-16T13:10:54;161750.66;;;22.11;37.90
1776;BME280;885;42.626;23.200;2022-10-16T13:13:46;162199.22;;;22.39;37.07
1776;BME280;885;42.626;23.200;2022-10-16T13:16:22;162661.34;;;22.71;37.00
1776;BME280;885;42.626;23.200;2022-10-16T13:19:01;161782.09;;;22.24;38.05
1776;BME280;885;42.626;23.200;2022-10-16T13:21:46;160568.63;;;21.92;37.45
1776;BME280;885;42.626;23.200;2022-10-16T13:24:25;160164.00;;;21.82;37.15
1776;BME280;885;42.626;23.200;2022-10-16T13:27:01;160513.91;;;21.71;38.59
1776;BME280;885;42.626;23.200;2022-10-16T13:29:33;160584.22;;;21.98;37.38
1776;BME280;885;42.626;23.200;2022-10-16T13:32:06;160147.09;;;21.75;37.71
1776;BME280;885;42.626;23.200;2022-10-16T13:34:43;160646.66;;;22.23;36.57